Time;durP1;ratioP1;P1;durP2;ratioP2;P2;SDS_P1;SDS_P2;PMS_P1;PMS_P2;Temp;Humidity;BMP_temperature;BMP_pressure;BME280_temperature;BME280_humidity;BME280_pressure;Samples;Min_cycle;Max_cycle;Signal;HPM_P1;HPM_P2
2023/09/02 00:00:23;;;;;;;3.23;2.40;;;15.70;99.90;;;;;;5073994;28;20188;-51
2023/09/02 00:02:49;;;;;;;3.63;2.40;;;15.70;99.90;;;;;;5073618;28;20810;-54
2023/09/02 00:05:14;;;;;;;2.60;2.40;;;15.20;99.90;;;;;;5073853;28;20246;-55
2023/09/02 00:07:40;;;;;;;2.87;2.30;;;;;;;;;;5073679;28;20226;-56
2023/09/02 00:10:08;;;;;;;2.77;2.30;;;;;;;;;;5073449;28;20184;-56
2023/09/02 00:12:34;;;;;;;3.07;2.73;;;;;;;;;;5072942;28;20203;-59
2023/09/02 00:15:00;;;;;;;3.93;2.20;;;15.50;99.90;;;;;;5073624;28;20180;-52
2023/09/02 00:17:25;;;;;;;2.87;2.60;;;15.70;99.90;;;;;;5073486;28;20322;-53
2023/09/02 00:19:51;;;;;;;3.10;2.50;;;15.20;99.90;;;;;;5073245;28;20170;-55
2023/09/02 00:22:17;;;;;;;4.67;2.60;;;;;;;;;;5073019;28;20171;-58
2023/09/02 00:24:43;;;;;;;2.33;2.10;;;15.40;99.90;;;;;;5073742;28;20171;-52
2023/09/02 00:27:09;;;;;;;2.57;2.30;;;15.10;99.90;;;;;;5073100;28;20215;-52
2023/09/02 00:29:34;;;;;;;2.57;2.37;;;15.10;99.90;;;;;;5073071;28;20205;-53
2023/09/02 00:32:00;;;;;;;2.90;2.37;;;15.20;99.90;;;;;;5072776;28;20213;-56
2023/09/02 00:34:25;;;;;;;3.03;2.50;;;15.10;99.90;;;;;;5073231;28;20171;-53
2023/09/02 00:36:51;;;;;;;3.00;2.70;;;;;;;;;;5073030;28;20186;-53
2023/09/02 00:39:17;;;;;;;4.07;2.07;;;;;;;;;;5072805;28;20245;-58
2023/09/02 00:41:51;;;;;;;2.90;2.40;;;14.80;99.90;;;;;;5072805;28;20182;-50
2023/09/02 00:44:17;;;;;;;2.60;2.40;;;15.30;99.90;;;;;;5072945;28;20179;-53
2023/09/02 00:46:42;;;;;;;3.13;2.10;;;14.80;99.90;;;;;;5054598;28;20209;-51
2023/09/02 00:49:08;;;;;;;4.37;2.23;;;;;;;;;;5073166;28;20178;-55
2023/09/02 00:51:34;;;;;;;3.03;2.50;;;;;;;;;;5071939;28;20213;-53
2023/09/02 00:54:00;;;;;;;3.00;2.40;;;;;;;;;;5072712;28;20178;-56
2023/09/02 00:56:27;;;;;;;4.00;2.53;;;14.90;99.90;;;;;;5071936;28;20290;-57
2023/09/02 00:58:58;;;;;;;4.70;2.83;;;15.10;99.90;;;;;;5072682;28;20706;-53
2023/09/02 01:01:24;;;;;;;2.43;2.23;;;14.90;99.90;;;;;;5071559;28;20166;-54
2023/09/02 01:03:49;;;;;;;4.37;2.53;;;14.50;99.90;;;;;;5072565;28;20182;-53
2023/09/02 01:06:16;;;;;;;2.63;2.23;;;14.70;99.90;;;;;;5072568;28;20224;-52
2023/09/02 01:08:41;;;;;;;2.63;2.43;;;14.70;99.90;;;;;;5072446;28;20174;-51
2023/09/02 01:11:07;;;;;;;2.53;2.33;;;;;;;;;;5072263;28;20205;-57
2023/09/02 01:13:33;;;;;;;4.73;2.60;;;;;;;;;;5071897;28;20701;-56
2023/09/02 01:15:59;;;;;;;2.60;2.40;;;15.10;99.90;;;;;;5072390;28;20741;-52
2023/09/02 01:18:25;;;;;;;2.63;2.43;;;14.90;99.90;;;;;;5072332;28;20202;-50
2023/09/02 01:21:09;;;;;;;4.70;2.37;;;14.80;99.90;;;;;;5072105;28;20174;-51
2023/09/02 01:24:10;;;;;;;2.97;2.53;;;14.90;99.90;;;;;;5071838;28;20170;-53
2023/09/02 01:27:15;;;;;;;2.40;2.20;;;15.00;99.90;;;;;;5071894;28;20219;-54
2023/09/02 01:30:15;;;;;;;3.80;2.23;;;15.00;99.90;;;;;;5072241;28;20174;-56
2023/09/02 01:32:43;;;;;;;2.87;2.30;;;15.00;99.90;;;;;;5067443;28;20217;-56
2023/09/02 01:35:15;;;;;;;3.27;2.50;;;14.70;99.90;;;;;;5072164;28;20242;-58
2023/09/02 01:37:43;;;;;;;3.03;2.37;;;14.80;99.90;;;;;;5071518;28;20198;-55
2023/09/02 01:40:14;;;;;;;3.73;2.37;;;15.20;99.90;;;;;;5071885;28;20174;-57
2023/09/02 01:42:40;;;;;;;2.27;2.10;;;14.60;99.90;;;;;;5071406;28;20679;-55
2023/09/02 01:45:08;;;;;;;2.30;2.10;;;14.70;99.90;;;;;;5071918;28;20171;-57
2023/09/02 01:47:35;;;;;;;2.60;2.33;;;14.80;99.90;;;;;;5071977;28;20201;-57
2023/09/02 01:50:03;;;;;;;2.63;2.00;;;17.10;99.90;;;;;;5071797;28;20224;-57
2023/09/02 01:52:29;;;;;;;2.40;2.03;;;;;;;;;;5071310;28;20198;-60
2023/09/02 01:54:55;;;;;;;2.57;2.30;;;14.70;99.90;;;;;;5071614;28;20179;-59
2023/09/02 01:57:21;;;;;;;2.43;2.23;;;;;;;;;;5071651;28;20194;-59
2023/09/02 01:59:47;;;;;;;2.20;2.00;;;;;;;;;;5071821;28;20307;-59
2023/09/02 02:02:16;;;;;;;3.00;2.70;;;;;;;;;;5071229;28;20178;-56
2023/09/02 02:04:46;;;;;;;4.93;2.80;;;14.70;99.90;;;;;;5071777;28;20702;-55
2023/09/02 02:07:13;;;;;;;4.40;3.23;;;14.70;99.90;;;;;;5071440;28;20197;-60
2023/09/02 02:09:43;;;;;;;2.77;2.27;;;14.90;99.90;;;;;;5071724;28;20202;-53
2023/09/02 02:12:08;;;;;;;2.80;2.50;;;14.40;99.90;;;;;;5071080;28;20217;-53
2023/09/02 02:14:34;;;;;;;2.90;2.40;;;14.40;99.90;;;;;;5071069;28;20183;-53
2023/09/02 02:17:05;;;;;;;2.63;2.43;;;14.90;99.90;;;;;;5071752;28;20658;-55
2023/09/02 02:19:32;;;;;;;3.97;2.47;;;14.80;99.90;;;;;;5071689;28;20178;-56
2023/09/02 02:22:00;;;;;;;2.60;2.40;;;14.80;99.90;;;;;;5071047;28;20186;-56
2023/09/02 02:24:25;;;;;;;2.40;2.20;;;14.60;99.90;;;;;;5071199;28;20183;-56
2023/09/02 02:26:51;;;;;;;2.57;2.37;;;14.30;99.90;;;;;;5071917;28;20217;-53
2023/09/02 02:29:17;;;;;;;3.30;2.30;;;14.50;99.90;;;;;;5071527;28;20235;-50
2023/09/02 02:31:43;;;;;;;4.00;2.20;;;;;;;;;;5071008;28;20199;-58
2023/09/02 02:34:09;;;;;;;5.60;2.20;;;;;;;;;;5071070;28;20185;-58
2023/09/02 02:36:35;;;;;;;2.33;2.10;;;;;;;;;;5071274;28;20726;-58
2023/09/02 02:39:02;;;;;;;2.30;2.10;;;14.70;99.90;;;;;;5071334;28;20182;-57
2023/09/02 02:41:28;;;;;;;2.70;2.40;;;14.90;99.90;;;;;;5071316;28;20183;-57
2023/09/02 02:43:53;;;;;;;2.83;2.47;;;14.90;99.90;;;;;;5070995;28;20186;-57
2023/09/02 02:46:19;;;;;;;3.33;2.30;;;15.00;99.90;;;;;;5071123;28;20277;-53
2023/09/02 02:48:44;;;;;;;2.93;2.50;;;15.10;99.90;;;;;;5071416;28;20211;-55
2023/09/02 02:51:10;;;;;;;2.53;2.33;;;14.80;99.90;;;;;;5071281;28;20202;-56
2023/09/02 02:53:36;;;;;;;4.27;2.60;;;;;;;;;;5070592;28;20183;-57
2023/09/02 02:56:02;;;;;;;2.60;2.40;;;15.10;99.90;;;;;;5071285;28;20273;-54
2023/09/02 02:58:29;;;;;;;2.37;2.17;;;14.60;99.90;;;;;;5071301;28;20604;-54
2023/09/02 03:01:05;;;;;;;2.73;2.30;;;14.80;99.90;;;;;;5071069;28;20179;-55
2023/09/02 03:03:32;;;;;;;3.83;2.13;;;14.90;99.90;;;;;;5070773;28;20189;-57
2023/09/02 03:06:02;;;;;;;4.37;2.40;;;14.80;99.90;;;;;;5071140;28;20190;-54
2023/09/02 03:08:29;;;;;;;2.83;2.43;;;;;;;;;;5071208;28;20685;-56
2023/09/02 03:10:56;;;;;;;5.53;2.30;;;13.50;99.90;;;;;;5071268;28;20179;-58
2023/09/02 03:13:23;;;;;;;2.30;2.17;;;14.50;99.90;;;;;;5070555;28;20641;-55
2023/09/02 03:15:50;;;;;;;4.03;2.43;;;14.60;99.90;;;;;;5070959;28;20174;-53
2023/09/02 03:18:16;;;;;;;2.97;2.67;;;14.60;99.90;;;;;;5071527;28;20186;-57
2023/09/02 03:20:41;;;;;;;3.37;2.60;;;14.60;99.90;;;;;;5074622;28;20170;-55
2023/09/02 03:23:07;;;;;;;3.63;2.53;;;15.00;99.90;;;;;;5073900;28;20209;-56
2023/09/02 03:25:34;;;;;;;2.37;2.17;;;14.70;99.90;;;;;;5074530;28;20175;-53
2023/09/02 03:28:00;;;;;;;2.70;2.50;;;14.40;99.90;;;;;;5074455;28;20568;-56
2023/09/02 03:30:26;;;;;;;2.67;2.47;;;;;;;;;;5074382;28;20252;-58
2023/09/02 03:32:52;;;;;;;3.53;2.43;;;15.10;99.90;;;;;;5073822;28;20256;-57
2023/09/02 03:35:18;;;;;;;3.70;2.63;;;14.90;99.90;;;;;;5074402;28;20194;-56
2023/09/02 03:37:44;;;;;;;3.23;2.87;;;;;;;;;;5074222;28;20202;-58
2023/09/02 03:40:10;;;;;;;2.53;2.33;;;;;;;;;;5074276;28;20167;-57
2023/09/02 03:42:36;;;;;;;4.87;2.60;;;;;;;;;;5073795;28;20186;-54
2023/09/02 03:45:02;;;;;;;2.97;2.30;;;14.70;99.90;;;;;;5073971;28;20573;-52
2023/09/02 03:47:32;;;;;;;3.20;2.40;;;14.80;99.90;;;;;;5074008;28;20191;-57
2023/09/02 03:50:04;;;;;;;2.50;2.30;;;14.50;99.90;;;;;;5074103;28;20192;-54
2023/09/02 03:52:30;;;;;;;3.40;2.50;;;14.70;99.90;;;;;;5073208;28;20202;-54
2023/09/02 03:54:56;;;;;;;3.70;2.70;;;14.70;99.90;;;;;;5073910;28;20174;-53
2023/09/02 03:57:22;;;;;;;6.23;2.50;;;14.50;99.90;;;;;;5073990;28;20278;-55
2023/09/02 03:59:48;;;;;;;2.63;2.20;;;14.60;99.90;;;;;;5074018;28;20631;-54
2023/09/02 04:02:13;;;;;;;2.60;2.40;;;;;;;;;;5073323;28;20190;-55
2023/09/02 04:04:40;;;;;;;4.47;2.70;;;14.50;99.90;;;;;;5073708;28;20221;-55
2023/09/02 04:07:06;;;;;;;2.80;2.50;;;14.60;99.90;;;;;;5073679;28;20607;-53
2023/09/02 04:09:33;;;;;;;4.33;2.90;;;14.70;99.90;;;;;;5073786;28;20280;-56
2023/09/02 04:11:59;;;;;;;3.90;2.60;;;;;;;;;;5073242;28;20202;-56
2023/09/02 04:14:24;;;;;;;3.47;3.17;;;14.60;99.90;;;;;;5073810;28;20216;-55
2023/09/02 04:16:52;;;;;;;3.83;3.40;;;14.70;99.90;;;;;;5073408;28;20199;-55
2023/09/02 04:19:18;;;;;;;5.27;3.60;;;14.60;99.90;;;;;;5073658;28;20585;-57
2023/09/02 04:21:44;;;;;;;3.40;3.10;;;14.60;99.90;;;;;;5073123;28;20202;-54
2023/09/02 04:24:10;;;;;;;3.20;2.80;;;;;;;;;;5072785;28;20175;-59
2023/09/02 04:26:36;;;;;;;4.10;2.50;;;;;;;;;;5073038;28;20727;-54
2023/09/02 04:29:01;;;;;;;2.50;2.30;;;14.40;99.90;;;;;;5073299;28;20247;-57
2023/09/02 04:31:27;;;;;;;2.43;2.23;;;;;;;;;;5071800;28;20203;-52
2023/09/02 04:33:53;;;;;;;3.00;2.70;;;;;;;;;;5071959;28;20170;-56
2023/09/02 04:36:19;;;;;;;2.40;2.20;;;14.30;99.90;;;;;;5072747;28;20191;-58
2023/09/02 04:38:45;;;;;;;3.00;2.70;;;14.50;99.90;;;;;;5072900;28;20257;-53
2023/09/02 04:41:11;;;;;;;2.50;2.30;;;14.40;99.90;;;;;;5073125;28;20595;-54
2023/09/02 04:43:38;;;;;;;2.70;2.50;;;14.50;99.90;;;;;;5072727;28;20177;-56
2023/09/02 04:46:04;;;;;;;2.70;2.23;;;14.10;99.90;;;;;;5072524;28;20195;-57
2023/09/02 04:48:30;;;;;;;3.53;2.23;;;14.40;99.90;;;;;;5072977;28;20178;-57
2023/09/02 04:50:56;;;;;;;3.33;2.83;;;14.20;99.90;;;;;;5072782;28;20231;-57
2023/09/02 04:53:22;;;;;;;2.80;2.17;;;14.20;99.90;;;;;;5072649;28;20185;-54
2023/09/02 04:55:49;;;;;;;3.10;2.10;;;14.80;99.90;;;;;;5072556;28;20201;-57
2023/09/02 04:58:16;;;;;;;3.33;2.43;;;;;;;;;;5072146;28;20304;-57
2023/09/02 05:00:42;;;;;;;3.13;2.73;;;14.20;99.90;;;;;;5072550;28;20567;-53
2023/09/02 05:03:11;;;;;;;3.57;3.03;;;14.60;99.90;;;;;;5072447;28;20166;-56
2023/09/02 05:05:36;;;;;;;3.50;3.20;;;15.00;99.90;;;;;;5072047;28;20175;-51
2023/09/02 05:08:02;;;;;;;4.10;3.70;;;14.20;99.90;;;;;;5072577;28;20506;-57
2023/09/02 05:10:28;;;;;;;3.60;3.10;;;14.60;99.90;;;;;;5072466;28;20220;-55
2023/09/02 05:12:54;;;;;;;3.30;3.00;;;14.40;99.90;;;;;;5072221;28;20198;-56
2023/09/02 05:15:20;;;;;;;3.17;2.93;;;;;;;;;;5071661;28;20261;-51
2023/09/02 05:17:46;;;;;;;3.53;3.03;;;;;;;;;;5072425;28;20215;-57
2023/09/02 05:20:12;;;;;;;4.30;3.40;;;14.90;99.90;;;;;;5072587;28;20174;-57
2023/09/02 05:22:37;;;;;;;4.30;3.90;;;15.20;99.90;;;;;;5071951;28;20249;-55
2023/09/02 05:25:04;;;;;;;3.93;3.40;;;14.70;99.90;;;;;;5072051;28;20178;-56
2023/09/02 05:27:30;;;;;;;5.40;3.53;;;15.10;99.90;;;;;;5071721;28;20672;-53
2023/09/02 05:29:56;;;;;;;5.57;3.33;;;14.90;99.90;;;;;;5072181;28;20176;-57
2023/09/02 05:32:22;;;;;;;3.30;2.80;;;14.90;99.90;;;;;;5071896;28;20201;-59
2023/09/02 05:34:47;;;;;;;3.37;2.73;;;15.40;99.90;;;;;;5071814;28;20179;-54
2023/09/02 05:37:13;;;;;;;2.93;2.67;;;;;;;;;;5071743;28;20186;-55
2023/09/02 05:39:39;;;;;;;2.50;2.30;;;15.20;99.90;;;;;;5072130;28;20214;-56
2023/09/02 05:42:05;;;;;;;2.60;2.40;;;;;;;;;;5071333;28;20198;-54
2023/09/02 05:44:34;;;;;;;3.63;2.50;;;15.30;99.90;;;;;;5071715;28;20184;-56
2023/09/02 05:47:00;;;;;;;3.07;2.20;;;15.10;99.90;;;;;;5072076;28;20200;-56
2023/09/02 05:49:26;;;;;;;2.53;2.33;;;;;;;;;;5071292;28;20554;-56
2023/09/02 05:51:52;;;;;;;2.97;2.30;;;;;;;;;;5070727;28;20200;-54
2023/09/02 05:54:17;;;;;;;2.40;2.20;;;15.30;99.90;;;;;;5069317;28;20181;-57
2023/09/02 05:56:46;;;;;;;1.90;1.80;;;15.70;99.90;;;;;;5071729;28;20202;-54
2023/09/02 05:59:12;;;;;;;2.10;1.90;;;15.80;99.90;;;;;;5071027;28;20178;-52
2023/09/02 06:01:38;;;;;;;1.97;1.87;;;;;;;;;;5071268;28;20668;-56
2023/09/02 06:04:04;;;;;;;2.60;2.40;;;;;;;;;;5070819;28;20189;-56
2023/09/02 06:06:30;;;;;;;3.00;2.50;;;;;;;;;;5071630;28;20254;-58
2023/09/02 06:08:56;;;;;;;3.07;2.47;;;;;;;;;;5067009;28;20664;-59
2023/09/02 06:11:22;;;;;;;3.30;2.97;;;;;;;;;;5070887;28;20562;-59
2023/09/02 06:13:48;;;;;;;5.67;3.30;;;16.90;99.90;;;;;;5071589;28;20167;-56
2023/09/02 06:16:13;;;;;;;4.17;3.70;;;16.90;99.90;;;;;;5050053;28;20210;-58
2023/09/02 06:18:39;;;;;;;4.80;4.30;;;16.20;99.90;;;;;;5067953;28;20190;-54
2023/09/02 06:21:12;;;;;;;5.47;4.13;;;16.40;99.90;;;;;;5071579;28;20170;-58
2023/09/02 06:23:43;;;;;;;5.60;5.00;;;16.50;99.90;;;;;;5071235;28;20170;-54
2023/09/02 06:26:09;;;;;;;5.60;5.00;;;16.10;99.90;;;;;;5071366;28;20210;-54
2023/09/02 06:28:34;;;;;;;5.00;4.50;;;16.60;99.90;;;;;;5071118;28;20190;-56
2023/09/02 06:31:05;;;;;;;4.10;3.70;;;16.70;99.90;;;;;;5070370;28;20190;-53
2023/09/02 06:33:30;;;;;;;3.80;3.50;;;16.90;99.90;;;;;;5071197;28;20194;-52
2023/09/02 06:35:56;;;;;;;4.10;3.70;;;17.00;99.90;;;;;;5071019;28;20221;-54
2023/09/02 06:38:22;;;;;;;4.20;3.40;;;;;;;;;;5071562;28;20175;-53
2023/09/02 06:40:48;;;;;;;3.23;3.03;;;16.80;99.90;;;;;;5071372;28;20175;-55
2023/09/02 06:43:13;;;;;;;3.40;3.20;;;17.90;99.90;;;;;;5069843;28;20244;-54
2023/09/02 06:45:39;;;;;;;4.10;3.40;;;17.10;99.90;;;;;;5071032;28;20175;-55
2023/09/02 06:48:05;;;;;;;4.20;3.27;;;;;;;;;;5071355;28;20250;-54
2023/09/02 06:50:31;;;;;;;3.33;3.03;;;17.50;99.90;;;;;;5071225;28;20190;-57
2023/09/02 06:52:57;;;;;;;3.30;3.00;;;;;;;;;;5070515;28;20208;-56
2023/09/02 06:55:23;;;;;;;3.60;3.27;;;;;;;;;;5074211;28;20182;-56
2023/09/02 06:57:49;;;;;;;3.70;3.40;;;;;;;;;;5074834;28;20673;-57
2023/09/02 07:00:15;;;;;;;4.83;4.43;;;;;;;;;;5070066;28;20182;-58
2023/09/02 07:02:42;;;;;;;3.83;3.53;;;;;;;;;;5074815;28;20195;-57
2023/09/02 07:05:08;;;;;;;3.70;3.40;;;18.20;99.90;;;;;;5074192;28;20182;-58
2023/09/02 07:07:36;;;;;;;4.83;4.33;;;17.40;99.90;;;;;;5074659;28;20222;-59
2023/09/02 07:10:02;;;;;;;5.20;4.70;;;;;;;;;;5073472;28;21217;-58
2023/09/02 07:12:27;;;;;;;5.60;5.10;;;18.00;99.90;;;;;;5074147;28;20203;-55
2023/09/02 07:14:53;;;;;;;5.13;4.00;;;;;;;;;;5074383;28;20181;-55
2023/09/02 07:17:19;;;;;;;3.60;3.30;;;18.10;99.90;;;;;;5074315;28;20199;-53
2023/09/02 07:19:44;;;;;;;4.70;4.20;;;18.00;99.90;;;;;;5080829;28;20231;-55
2023/09/02 07:22:10;;;;;;;4.53;4.13;;;;;;;;;;5074444;28;20192;-57
2023/09/02 07:24:36;;;;;;;4.70;4.30;;;;;;;;;;5074044;28;20236;-56
2023/09/02 07:27:02;;;;;;;5.10;4.60;;;;;;;;;;5074104;28;20294;-57
2023/09/02 07:29:28;;;;;;;7.00;4.40;;;;;;;;;;5073886;28;20178;-57
2023/09/02 07:31:54;;;;;;;3.63;3.33;;;;;;;;;;5073331;28;20206;-55
2023/09/02 07:34:20;;;;;;;4.97;4.53;;;18.30;99.90;;;;;;5073701;28;20170;-57
2023/09/02 07:36:46;;;;;;;4.20;3.70;;;;;;;;;;5073622;28;20203;-57
2023/09/02 07:39:12;;;;;;;7.27;4.40;;;18.70;99.90;;;;;;5073938;28;20178;-56
2023/09/02 07:41:38;;;;;;;4.37;3.97;;;18.70;99.90;;;;;;5055621;28;20183;-57
2023/09/02 07:44:04;;;;;;;4.07;3.67;;;18.90;99.90;;;;;;5074038;28;20186;-54
2023/09/02 07:46:29;;;;;;;4.97;4.47;;;18.60;99.90;;;;;;5073578;28;20198;-57
2023/09/02 07:48:55;;;;;;;4.30;3.90;;;;;;;;;;5074017;28;20186;-59
2023/09/02 07:51:21;;;;;;;5.10;4.20;;;;;;;;;;5070345;28;20207;-59
2023/09/02 07:53:47;;;;;;;4.00;3.60;;;;;;;;;;5070538;28;20227;-58
2023/09/02 07:56:13;;;;;;;3.73;3.43;;;18.00;99.90;;;;;;5071737;28;20213;-59
2023/09/02 07:58:42;;;;;;;3.17;2.97;;;19.90;99.90;;;;;;5056887;28;20179;-57
2023/09/02 08:01:08;;;;;;;3.30;3.00;;;;;;;;;;5073197;28;20190;-57
2023/09/02 08:03:34;;;;;;;6.38;3.80;;;;;;;;;;5073275;28;20584;-59
2023/09/02 08:06:06;;;;;;;3.42;3.13;;;20.10;99.90;;;;;;5072990;28;20203;-56
2023/09/02 08:08:31;;;;;;;3.88;3.22;;;20.00;99.90;;;;;;5073095;28;20172;-59
2023/09/02 08:11:04;;;;;;;4.18;3.30;;;19.90;99.90;;;;;;5072723;28;20753;-57
2023/09/02 08:13:30;;;;;;;4.13;3.25;;;20.40;99.90;;;;;;5065079;28;20187;-59
2023/09/02 08:15:55;;;;;;;4.00;3.63;;;20.00;99.90;;;;;;5073245;28;20180;-59
2023/09/02 08:18:21;;;;;;;3.58;3.28;;;19.80;99.90;;;;;;5072820;28;20258;-58
2023/09/02 08:20:46;;;;;;;4.30;3.90;;;20.20;99.90;;;;;;5073106;28;20173;-58
2023/09/02 08:23:12;;;;;;;3.90;3.20;;;20.10;99.90;;;;;;5070552;28;20176;-59
2023/09/02 08:25:38;;;;;;;3.50;3.20;;;;;;;;;;5073060;28;20176;-58
2023/09/02 08:28:04;;;;;;;5.60;3.35;;;20.30;99.90;;;;;;5073717;28;20192;-57
2023/09/02 08:30:29;;;;;;;3.75;3.15;;;20.40;99.90;;;;;;5073070;28;20228;-54
2023/09/02 08:32:55;;;;;;;4.40;2.72;;;;;;;;;;5068010;28;20205;-58
2023/09/02 08:35:21;;;;;;;3.15;2.85;;;;;;;;;;5060549;28;20744;-57
2023/09/02 08:37:47;;;;;;;3.55;2.90;;;;;;;;;;5072837;28;20665;-56
2023/09/02 08:40:14;;;;;;;3.13;2.88;;;20.70;99.90;;;;;;5072887;28;20189;-57
2023/09/02 08:42:41;;;;;;;3.35;3.05;;;21.20;99.90;;;;;;5072292;28;20193;-55
2023/09/02 08:45:08;;;;;;;3.30;3.00;;;21.10;99.90;;;;;;5072853;28;20176;-55
2023/09/02 08:47:37;;;;;;;4.30;3.20;;;20.90;99.90;;;;;;5068967;28;20202;-57
2023/09/02 08:50:03;;;;;;;3.40;3.08;;;21.30;99.90;;;;;;5072378;28;20182;-57
2023/09/02 08:52:29;;;;;;;2.83;2.63;;;21.30;99.90;;;;;;5071315;28;20214;-56
2023/09/02 08:54:55;;;;;;;3.13;2.80;;;21.50;99.90;;;;;;5074672;28;20167;-58
2023/09/02 08:57:20;;;;;;;3.03;2.72;;;21.40;99.90;;;;;;5072231;28;20190;-56
2023/09/02 08:59:47;;;;;;;2.90;2.60;;;;;;;;;;5072098;28;20583;-58
2023/09/02 09:02:13;;;;;;;2.90;2.70;;;;;;;;;;5070815;28;20639;-56
2023/09/02 09:04:39;;;;;;;2.92;2.63;;;;;;;;;;5055808;28;20262;-60
2023/09/02 09:07:05;;;;;;;3.10;2.90;;;21.90;99.90;;;;;;5072167;28;20211;-60
2023/09/02 09:09:39;;;;;;;2.70;2.50;;;22.20;99.90;;;;;;5072493;28;20179;-60
2023/09/02 09:12:06;;;;;;;2.92;2.72;;;22.30;99.90;;;;;;5071261;28;20187;-59
2023/09/02 09:14:37;;;;;;;3.33;2.92;;;22.20;99.90;;;;;;5071228;28;20174;-54
2023/09/02 09:17:04;;;;;;;3.08;2.78;;;22.40;99.90;;;;;;5071029;28;20202;-61
2023/09/02 09:19:30;;;;;;;2.75;2.47;;;22.00;99.90;;;;;;5072583;28;20284;-57
2023/09/02 09:21:57;;;;;;;2.97;2.72;;;;;;;;;;5072108;28;20202;-60
2023/09/02 09:24:22;;;;;;;2.50;2.30;;;22.70;99.90;;;;;;5072447;28;20167;-56
2023/09/02 09:26:49;;;;;;;3.58;2.20;;;22.80;99.90;;;;;;5072091;28;20229;-58
2023/09/02 09:29:16;;;;;;;2.03;1.90;;;22.90;99.90;;;;;;5072311;28;20166;-58
2023/09/02 09:31:43;;;;;;;2.35;2.15;;;22.80;99.90;;;;;;5071710;28;20187;-58
2023/09/02 09:34:09;;;;;;;2.00;1.80;;;23.50;99.90;;;;;;5071460;28;20179;-57
2023/09/02 09:36:35;;;;;;;2.40;2.10;;;23.70;99.90;;;;;;5071851;28;20277;-55
2023/09/02 09:39:02;;;;;;;2.30;2.10;;;23.30;99.90;;;;;;5071817;28;20237;-57
2023/09/02 09:41:28;;;;;;;2.47;2.30;;;;;;;;;;5071576;28;20189;-56
2023/09/02 09:44:06;;;;;;;2.60;2.40;;;23.40;99.90;;;;;;5071840;28;20179;-58
2023/09/02 09:46:46;;;;;;;2.58;2.38;;;23.50;99.90;;;;;;5070994;28;20205;-58
2023/09/02 09:49:25;;;;;;;3.90;2.50;;;23.40;99.90;;;;;;5070326;28;20174;-61
2023/09/02 09:52:08;;;;;;;2.33;2.17;;;23.60;99.90;;;;;;5069474;28;20191;-54
2023/09/02 09:54:56;;;;;;;3.35;2.95;;;23.50;99.90;;;;;;5070227;28;20185;-58
2023/09/02 09:57:30;;;;;;;2.63;2.05;;;23.80;99.90;;;;;;5069313;28;20762;-56
2023/09/02 09:59:57;;;;;;;2.42;2.22;;;24.00;99.90;;;;;;5069045;28;20193;-56
2023/09/02 10:02:23;;;;;;;2.40;2.20;;;24.00;99.90;;;;;;5070575;28;20174;-56
2023/09/02 10:04:50;;;;;;;3.28;2.35;;;23.60;99.90;;;;;;5070886;28;20175;-54
2023/09/02 10:07:26;;;;;;;4.25;2.10;;;23.90;99.90;;;;;;5071748;28;20293;-58
2023/09/02 10:09:56;;;;;;;2.88;2.08;;;23.50;99.90;;;;;;5071652;28;20177;-57
2023/09/02 10:12:22;;;;;;;2.00;1.80;;;23.90;99.90;;;;;;5071142;28;20244;-59
2023/09/02 10:14:49;;;;;;;4.18;2.00;;;24.10;99.90;;;;;;5070858;28;20178;-59
2023/09/02 10:17:16;;;;;;;2.03;1.77;;;24.20;99.90;;;;;;5071391;28;20199;-56
2023/09/02 10:19:42;;;;;;;1.80;1.70;;;24.30;99.90;;;;;;5070364;28;20174;-58
2023/09/02 10:22:08;;;;;;;1.73;1.63;;;24.50;99.90;;;;;;5071388;28;20185;-57
2023/09/02 10:24:34;;;;;;;1.65;1.52;;;;;;;;;;5071326;28;20257;-61
2023/09/02 10:27:15;;;;;;;1.75;1.65;;;24.90;99.90;;;;;;5071215;28;20655;-60
2023/09/02 10:29:43;;;;;;;2.17;1.98;;;25.00;99.90;;;;;;5075387;28;20189;-58
2023/09/02 10:32:12;;;;;;;1.23;1.13;;;25.00;99.90;;;;;;5057332;28;20292;-58
2023/09/02 10:34:56;;;;;;;1.92;1.50;;;25.40;99.90;;;;;;5075321;28;20167;-58
2023/09/02 10:37:27;;;;;;;1.55;1.42;;;26.10;99.90;;;;;;5064536;28;20213;-56
2023/09/02 10:40:01;;;;;;;1.85;1.55;;;26.20;99.90;;;;;;5075612;28;20649;-57
2023/09/02 10:42:28;;;;;;;1.40;1.30;;;26.40;99.90;;;;;;5075018;28;20268;-59
2023/09/02 10:44:54;;;;;;;1.85;1.70;;;27.10;99.90;;;;;;5075402;28;20178;-55
2023/09/02 10:47:20;;;;;;;1.50;1.40;;;28.20;99.90;;;;;;5075030;28;20193;-57
2023/09/02 10:49:46;;;;;;;1.55;1.45;;;28.40;99.90;;;;;;5075367;28;20170;-58
2023/09/02 10:52:14;;;;;;;1.60;1.50;;;28.40;99.90;;;;;;5074767;28;20191;-55
2023/09/02 10:55:02;;;;;;;1.75;1.52;;;28.40;99.90;;;;;;5074115;28;20189;-56
2023/09/02 10:57:43;;;;;;;1.20;1.20;;;28.90;99.90;;;;;;5074931;28;20216;-60
2023/09/02 11:00:20;;;;;;;1.02;1.02;;;29.60;99.90;;;;;;5075326;28;20167;-59
2023/09/02 11:02:54;;;;;;;1.55;1.30;;;30.80;99.90;;;;;;5074766;28;20171;-61
2023/09/02 11:05:21;;;;;;;1.67;1.50;;;32.30;99.90;;;;;;5075062;28;20171;-59
2023/09/02 11:07:48;;;;;;;1.65;1.55;;;33.20;99.90;;;;;;5075105;28;20183;-58
2023/09/02 11:10:15;;;;;;;1.90;1.42;;;33.40;99.90;;;;;;5074918;28;20167;-57
2023/09/02 11:13:02;;;;;;;1.40;1.30;;;33.30;99.90;;;;;;5074503;28;20699;-59
2023/09/02 11:15:29;;;;;;;1.45;1.35;;;33.10;98.00;;;;;;5074875;28;20688;-60
2023/09/02 11:17:55;;;;;;;1.50;1.40;;;34.30;99.90;;;;;;5074452;28;20565;-58
2023/09/02 11:20:25;;;;;;;1.40;1.30;;;34.10;99.90;;;;;;5074745;28;20175;-61
2023/09/02 11:22:56;;;;;;;1.63;1.52;;;33.30;99.90;;;;;;5074543;28;20170;-61
2023/09/02 11:25:42;;;;;;;1.25;1.17;;;33.40;99.90;;;;;;5074707;28;20698;-56
2023/09/02 11:28:17;;;;;;;1.83;1.40;;;31.40;99.90;;;;;;5074587;28;20179;-59
2023/09/02 11:31:02;;;;;;;1.52;1.42;;;30.70;99.90;;;;;;5074583;28;20215;-57
2023/09/02 11:33:27;;;;;;;1.85;1.27;;;29.90;99.90;;;;;;5074169;28;20171;-58
2023/09/02 11:36:02;;;;;;;1.48;1.38;;;29.20;99.90;;;;;;5074432;28;20170;-57
2023/09/02 11:38:27;;;;;;;1.20;1.20;;;30.40;99.90;;;;;;5074288;28;20170;-61
2023/09/02 11:40:53;;;;;;;1.98;1.77;;;31.30;99.90;;;;;;5073640;28;20187;-59
2023/09/02 11:43:19;;;;;;;1.42;1.33;;;32.50;99.90;;;;;;5070273;28;20174;-58
2023/09/02 11:45:45;;;;;;;1.35;1.25;;;33.70;99.70;;;;;;5087646;28;20185;-54
2023/09/02 11:48:11;;;;;;;0.93;0.93;;;34.00;94.80;;;;;;5089262;28;20344;-59
2023/09/02 11:50:40;;;;;;;1.33;1.15;;;33.30;96.20;;;;;;5088406;28;20647;-60
2023/09/02 11:53:06;;;;;;;1.00;1.00;;;34.30;99.40;;;;;;5090135;28;20208;-59
2023/09/02 11:55:31;;;;;;;2.58;1.33;;;34.40;94.50;;;;;;5078157;28;20174;-59
2023/09/02 11:57:57;;;;;;;1.13;1.13;;;33.80;91.80;;;;;;5075556;28;20664;-57
2023/09/02 12:00:24;;;;;;;1.58;1.13;;;33.50;92.80;;;;;;5074111;28;20174;-59
2023/09/02 12:02:53;;;;;;;1.40;1.30;;;34.20;92.80;;;;;;5073951;28;20231;-58
2023/09/02 12:05:19;;;;;;;1.25;1.15;;;34.50;93.50;;;;;;5073845;28;20177;-61
2023/09/02 12:07:46;;;;;;;1.40;1.30;;;35.00;93.00;;;;;;5073552;28;20221;-59
2023/09/02 12:10:12;;;;;;;1.10;1.00;;;35.10;92.60;;;;;;5074131;28;20700;-56
2023/09/02 12:12:46;;;;;;;1.45;1.35;;;35.10;89.30;;;;;;5073457;28;20564;-56
2023/09/02 12:15:19;;;;;;;1.70;1.30;;;35.20;88.20;;;;;;5073790;28;20169;-57
2023/09/02 12:17:47;;;;;;;1.38;1.25;;;35.30;85.10;;;;;;5073631;28;20192;-58
2023/09/02 12:20:14;;;;;;;2.15;1.42;;;35.10;90.00;;;;;;5073508;28;20734;-56
2023/09/02 12:22:42;;;;;;;1.40;1.30;;;35.00;91.30;;;;;;5073306;28;20253;-59
2023/09/02 12:25:11;;;;;;;1.40;1.30;;;35.40;87.30;;;;;;5073617;28;20174;-60
2023/09/02 12:27:36;;;;;;;1.75;1.52;;;35.40;86.20;;;;;;5071288;28;20214;-60
2023/09/02 12:30:02;;;;;;;1.30;1.20;;;35.80;89.70;;;;;;5072388;28;20185;-60
2023/09/02 12:32:29;;;;;;;1.10;1.10;;;36.00;89.20;;;;;;5073373;28;20678;-60
2023/09/02 12:34:55;;;;;;;1.33;1.20;;;35.10;85.40;;;;;;5078953;28;20891;-59
2023/09/02 12:37:21;;;;;;;1.27;1.17;;;34.10;89.10;;;;;;5082454;28;20196;-61
2023/09/02 12:39:48;;;;;;;1.30;1.20;;;34.30;88.50;;;;;;5093130;28;20691;-58
2023/09/02 12:42:15;;;;;;;0.80;0.80;;;34.60;87.20;;;;;;5066150;28;20205;-59
2023/09/02 12:44:58;;;;;;;1.58;1.05;;;33.60;89.50;;;;;;5090266;28;20170;-59
2023/09/02 12:47:25;;;;;;;1.30;0.95;;;33.70;92.60;;;;;;5077091;28;20579;-57
2023/09/02 12:49:58;;;;;;;0.98;0.90;;;34.10;90.20;;;;;;5081075;28;20181;-58
2023/09/02 12:52:27;;;;;;;2.13;1.00;;;34.30;95.10;;;;;;5091249;28;20176;-58
2023/09/02 12:54:56;;;;;;;1.38;1.27;;;34.70;90.50;;;;;;5092409;28;20315;-60
2023/09/02 12:57:29;;;;;;;1.40;1.30;;;34.90;88.70;;;;;;5092577;28;20185;-59
2023/09/02 12:59:56;;;;;;;0.85;0.80;;;34.90;90.60;;;;;;5087178;28;20172;-59
2023/09/02 13:02:24;;;;;;;0.90;0.90;;;34.80;86.00;;;;;;5092416;28;20297;-52
2023/09/02 13:04:50;;;;;;;1.10;1.00;;;34.80;86.60;;;;;;5092574;28;20294;-60
2023/09/02 13:07:20;;;;;;;0.90;0.90;;;35.00;83.50;;;;;;5092650;28;20254;-58
2023/09/02 13:09:46;;;;;;;1.20;1.10;;;;;;;;;;5066244;28;20227;-57
2023/09/02 13:12:12;;;;;;;1.42;1.10;;;34.70;86.50;;;;;;5058619;28;20384;-60